Country
Station

 

Weather  for  Balikesir  -  Turkey    Turkey

  
13 °C (55 °F)
    
 
 

Current METAR for Balikesir is :

LTBF 031450Z 00000KT 9999 FEW035 SCT200 13/05 Q1016 NOSIG

 

This is a report for Balikesir - Turkey.
 
The report was made 2 hours and 34 minutes ago, at 14:50 UTC .
The wind was calm.
 
The temperature was 13 °C (55 °F), with a dew-point at 5 °C (41 °F).
The atmospheric pressure was 1016 hPa (30.00 inHg).
The relative humidity was 58.2%.
 
There were a few clouds at a height of 1067 meters (3500 feet) and scattered clouds at a height of 6096 meters (20000 feet).
 
The overall visibility was greater than 10 kilometers (6.2 miles).
 

 
 
 
 

Country :   A   B   C   D   E   F   G   H   I   J   K   L   M   N   O   P   Q   R   S   T   U   V   W   Y   Z

 

Site Info  |  Disclaimer  |  Credits  |  Privacy
Contact us  |  Add to favorites
© 2013-2020 METARs - All rights reserved